sensor_id;sensor_type;location;lat;lon;timestamp;pressure;altitude;pressure_sealevel;temperature;humidity
9672;BME280;4874;43.568;27.824;2023-04-21T00:01:47;98481.28;;;11.16;100.00
9672;BME280;4874;43.568;27.824;2023-04-21T00:04:14;98481.97;;;11.18;100.00
9672;BME280;4874;43.568;27.824;2023-04-21T00:06:41;98472.19;;;11.19;100.00
9672;BME280;4874;43.568;27.824;2023-04-21T00:09:09;98476.16;;;11.15;100.00
9672;BME280;4874;43.568;27.824;2023-04-21T00:11:36;98483.69;;;11.27;100.00
9672;BME280;4874;43.568;27.824;2023-04-21T00:14:03;98479.31;;;11.10;100.00
9672;BME280;4874;43.568;27.824;2023-04-21T00:16:30;98476.44;;;11.04;100.00
9672;BME280;4874;43.568;27.824;2023-04-21T00:18:56;98484.34;;;10.96;100.00
9672;BME280;4874;43.568;27.824;2023-04-21T00:21:23;98481.75;;;11.04;100.00
9672;BME280;4874;43.568;27.824;2023-04-21T00:23:50;98481.03;;;10.94;100.00
9672;BME280;4874;43.568;27.824;2023-04-21T00:26:17;98476.91;;;10.99;100.00
9672;BME280;4874;43.568;27.824;2023-04-21T00:28:43;98474.22;;;10.91;100.00
9672;BME280;4874;43.568;27.824;2023-04-21T00:31:10;98476.38;;;10.96;100.00
9672;BME280;4874;43.568;27.824;2023-04-21T00:33:36;98478.38;;;10.94;100.00
9672;BME280;4874;43.568;27.824;2023-04-21T00:36:03;98475.94;;;11.00;100.00
9672;BME280;4874;43.568;27.824;2023-04-21T00:38:29;98474.53;;;10.88;100.00
9672;BME280;4874;43.568;27.824;2023-04-21T00:40:56;98464.97;;;10.95;100.00
9672;BME280;4874;43.568;27.824;2023-04-21T00:43:22;98467.09;;;10.92;100.00
9672;BME280;4874;43.568;27.824;2023-04-21T00:45:51;98463.75;;;10.90;100.00
9672;BME280;4874;43.568;27.824;2023-04-21T00:48:17;98456.94;;;10.87;100.00
9672;BME280;4874;43.568;27.824;2023-04-21T00:50:44;98460.06;;;10.83;100.00
9672;BME280;4874;43.568;27.824;2023-04-21T00:53:11;98472.81;;;10.79;100.00
9672;BME280;4874;43.568;27.824;2023-04-21T00:55:38;98466.75;;;10.87;100.00
9672;BME280;4874;43.568;27.824;2023-04-21T00:58:04;98456.22;;;10.77;100.00
9672;BME280;4874;43.568;27.824;2023-04-21T01:00:31;98462.53;;;10.76;100.00
9672;BME280;4874;43.568;27.824;2023-04-21T01:02:58;98456.91;;;10.79;100.00
9672;BME280;4874;43.568;27.824;2023-04-21T01:05:26;98455.19;;;10.70;100.00
9672;BME280;4874;43.568;27.824;2023-04-21T01:07:52;98461.34;;;10.71;100.00
9672;BME280;4874;43.568;27.824;2023-04-21T01:10:19;98457.22;;;10.76;100.00
9672;BME280;4874;43.568;27.824;2023-04-21T01:12:46;98454.97;;;10.89;100.00
9672;BME280;4874;43.568;27.824;2023-04-21T01:15:13;98446.16;;;10.89;100.00
9672;BME280;4874;43.568;27.824;2023-04-21T01:17:40;98454.63;;;10.92;100.00
9672;BME280;4874;43.568;27.824;2023-04-21T01:20:08;98453.66;;;10.93;100.00
9672;BME280;4874;43.568;27.824;2023-04-21T01:22:39;98446.16;;;10.89;100.00
9672;BME280;4874;43.568;27.824;2023-04-21T01:25:07;98450.34;;;10.99;100.00
9672;BME280;4874;43.568;27.824;2023-04-21T01:27:34;98440.25;;;11.11;100.00
9672;BME280;4874;43.568;27.824;2023-04-21T01:30:00;98433.97;;;11.04;100.00
9672;BME280;4874;43.568;27.824;2023-04-21T01:32:28;98442.53;;;10.98;100.00
9672;BME280;4874;43.568;27.824;2023-04-21T01:34:56;98443.56;;;11.05;100.00
9672;BME280;4874;43.568;27.824;2023-04-21T01:37:27;98445.72;;;11.01;100.00
9672;BME280;4874;43.568;27.824;2023-04-21T01:39:54;98440.78;;;11.14;100.00
9672;BME280;4874;43.568;27.824;2023-04-21T01:42:22;98444.09;;;11.08;100.00
9672;BME280;4874;43.568;27.824;2023-04-21T01:44:48;98443.25;;;11.08;100.00
9672;BME280;4874;43.568;27.824;2023-04-21T01:47:15;98449.38;;;11.00;100.00
9672;BME280;4874;43.568;27.824;2023-04-21T01:49:42;98446.03;;;10.98;100.00
9672;BME280;4874;43.568;27.824;2023-04-21T01:52:09;98448.38;;;11.01;100.00
9672;BME280;4874;43.568;27.824;2023-04-21T01:54:35;98450.75;;;11.12;100.00
9672;BME280;4874;43.568;27.824;2023-04-21T01:57:02;98437.31;;;11.14;100.00
9672;BME280;4874;43.568;27.824;2023-04-21T01:59:29;98437.22;;;10.98;100.00
9672;BME280;4874;43.568;27.824;2023-04-21T02:01:55;98435.41;;;10.98;100.00
9672;BME280;4874;43.568;27.824;2023-04-21T02:04:22;98430.28;;;10.97;100.00
9672;BME280;4874;43.568;27.824;2023-04-21T02:06:49;98432.22;;;10.87;100.00
9672;BME280;4874;43.568;27.824;2023-04-21T02:09:15;98434.03;;;10.86;100.00
9672;BME280;4874;43.568;27.824;2023-04-21T02:11:42;98415.81;;;10.91;100.00
9672;BME280;4874;43.568;27.824;2023-04-21T02:14:09;98415.16;;;10.97;100.00
9672;BME280;4874;43.568;27.824;2023-04-21T02:16:35;98410.16;;;10.94;100.00
9672;BME280;4874;43.568;27.824;2023-04-21T02:19:02;98410.84;;;10.96;100.00
9672;BME280;4874;43.568;27.824;2023-04-21T02:21:28;98406.53;;;10.95;100.00
9672;BME280;4874;43.568;27.824;2023-04-21T02:23:55;98417.50;;;11.00;100.00
9672;BME280;4874;43.568;27.824;2023-04-21T02:26:22;98420.16;;;11.00;100.00
9672;BME280;4874;43.568;27.824;2023-04-21T02:28:49;98421.13;;;10.99;100.00
9672;BME280;4874;43.568;27.824;2023-04-21T02:31:16;98430.44;;;10.95;100.00
9672;BME280;4874;43.568;27.824;2023-04-21T02:33:44;98424.31;;;11.03;100.00
9672;BME280;4874;43.568;27.824;2023-04-21T02:36:11;98415.72;;;11.17;100.00
9672;BME280;4874;43.568;27.824;2023-04-21T02:38:37;98427.47;;;11.06;100.00
9672;BME280;4874;43.568;27.824;2023-04-21T02:41:04;98422.50;;;11.03;100.00
9672;BME280;4874;43.568;27.824;2023-04-21T02:43:30;98412.88;;;11.10;100.00
9672;BME280;4874;43.568;27.824;2023-04-21T02:45:57;98405.78;;;11.19;100.00
9672;BME280;4874;43.568;27.824;2023-04-21T02:48:23;98407.22;;;11.05;100.00
9672;BME280;4874;43.568;27.824;2023-04-21T02:50:50;98409.22;;;11.11;100.00
9672;BME280;4874;43.568;27.824;2023-04-21T02:53:19;98407.94;;;11.23;100.00
9672;BME280;4874;43.568;27.824;2023-04-21T02:55:46;98419.38;;;11.16;100.00
9672;BME280;4874;43.568;27.824;2023-04-21T02:58:12;98418.66;;;11.06;100.00
9672;BME280;4874;43.568;27.824;2023-04-21T03:00:39;98413.78;;;10.85;100.00
9672;BME280;4874;43.568;27.824;2023-04-21T03:03:06;98422.72;;;10.76;100.00
9672;BME280;4874;43.568;27.824;2023-04-21T03:05:33;98427.69;;;10.79;100.00
9672;BME280;4874;43.568;27.824;2023-04-21T03:07:59;98425.53;;;10.75;100.00
9672;BME280;4874;43.568;27.824;2023-04-21T03:10:26;98425.41;;;10.84;100.00
9672;BME280;4874;43.568;27.824;2023-04-21T03:12:53;98429.91;;;10.92;100.00
9672;BME280;4874;43.568;27.824;2023-04-21T03:15:19;98416.72;;;10.74;100.00
9672;BME280;4874;43.568;27.824;2023-04-21T03:17:46;98410.50;;;10.91;100.00
9672;BME280;4874;43.568;27.824;2023-04-21T03:20:12;98418.09;;;10.86;100.00
9672;BME280;4874;43.568;27.824;2023-04-21T03:22:39;98424.84;;;10.73;100.00
9672;BME280;4874;43.568;27.824;2023-04-21T03:25:05;98420.22;;;10.75;100.00
9672;BME280;4874;43.568;27.824;2023-04-21T03:27:33;98422.88;;;10.49;100.00
9672;BME280;4874;43.568;27.824;2023-04-21T03:29:59;98427.00;;;10.43;100.00
9672;BME280;4874;43.568;27.824;2023-04-21T03:32:26;98429.50;;;10.45;100.00
9672;BME280;4874;43.568;27.824;2023-04-21T03:34:53;98427.09;;;10.59;100.00
9672;BME280;4874;43.568;27.824;2023-04-21T03:37:19;98423.34;;;10.44;100.00
9672;BME280;4874;43.568;27.824;2023-04-21T03:39:46;98423.72;;;10.24;100.00
9672;BME280;4874;43.568;27.824;2023-04-21T03:42:12;98427.44;;;10.13;100.00
9672;BME280;4874;43.568;27.824;2023-04-21T03:44:39;98423.72;;;10.24;100.00
9672;BME280;4874;43.568;27.824;2023-04-21T03:47:05;98435.72;;;10.36;100.00
9672;BME280;4874;43.568;27.824;2023-04-21T03:49:32;98435.41;;;10.13;100.00
9672;BME280;4874;43.568;27.824;2023-04-21T03:51:59;98435.69;;;9.93;100.00
9672;BME280;4874;43.568;27.824;2023-04-21T03:54:26;98437.28;;;10.03;100.00
9672;BME280;4874;43.568;27.824;2023-04-21T03:56:52;98442.66;;;10.11;100.00
9672;BME280;4874;43.568;27.824;2023-04-21T03:59:19;98438.06;;;9.96;100.00
9672;BME280;4874;43.568;27.824;2023-04-21T04:01:46;98437.91;;;10.15;100.00
9672;BME280;4874;43.568;27.824;2023-04-21T04:04:12;98438.91;;;10.14;100.00
9672;BME280;4874;43.568;27.824;2023-04-21T04:06:39;98439.50;;;10.08;100.00
9672;BME280;4874;43.568;27.824;2023-04-21T04:09:06;98435.94;;;10.17;100.00
9672;BME280;4874;43.568;27.824;2023-04-21T04:11:34;98440.78;;;10.21;100.00
9672;BME280;4874;43.568;27.824;2023-04-21T04:14:00;98429.94;;;10.40;100.00
9672;BME280;4874;43.568;27.824;2023-04-21T04:16:27;98435.31;;;10.48;100.00
9672;BME280;4874;43.568;27.824;2023-04-21T04:18:54;98441.44;;;10.49;100.00
9672;BME280;4874;43.568;27.824;2023-04-21T04:21:21;98449.41;;;10.49;100.00
9672;BME280;4874;43.568;27.824;2023-04-21T04:23:48;98449.03;;;10.18;100.00
9672;BME280;4874;43.568;27.824;2023-04-21T04:26:16;98458.34;;;10.22;100.00
9672;BME280;4874;43.568;27.824;2023-04-21T04:28:44;98462.22;;;10.28;100.00
9672;BME280;4874;43.568;27.824;2023-04-21T04:31:10;98460.69;;;10.25;100.00
9672;BME280;4874;43.568;27.824;2023-04-21T04:33:42;98460.59;;;10.09;100.00
9672;BME280;4874;43.568;27.824;2023-04-21T04:36:08;98471.53;;;9.97;100.00
9672;BME280;4874;43.568;27.824;2023-04-21T04:38:37;98476.09;;;9.87;100.00
9672;BME280;4874;43.568;27.824;2023-04-21T04:41:04;98480.78;;;9.93;100.00
9672;BME280;4874;43.568;27.824;2023-04-21T04:43:31;98461.03;;;9.87;100.00
9672;BME280;4874;43.568;27.824;2023-04-21T04:46:04;98455.31;;;10.00;100.00
9672;BME280;4874;43.568;27.824;2023-04-21T04:48:31;98455.94;;;10.11;100.00
9672;BME280;4874;43.568;27.824;2023-04-21T04:50:57;98462.59;;;9.98;100.00
9672;BME280;4874;43.568;27.824;2023-04-21T04:53:26;98464.41;;;10.15;100.00
9672;BME280;4874;43.568;27.824;2023-04-21T04:55:53;98470.38;;;9.99;100.00
9672;BME280;4874;43.568;27.824;2023-04-21T04:58:19;98480.88;;;9.83;100.00
9672;BME280;4874;43.568;27.824;2023-04-21T05:00:46;98492.06;;;9.77;100.00
9672;BME280;4874;43.568;27.824;2023-04-21T05:03:12;98494.88;;;9.93;100.00
9672;BME280;4874;43.568;27.824;2023-04-21T05:05:39;98497.81;;;9.73;100.00
9672;BME280;4874;43.568;27.824;2023-04-21T05:08:06;98505.84;;;9.63;100.00
9672;BME280;4874;43.568;27.824;2023-04-21T05:10:32;98509.63;;;9.61;100.00
9672;BME280;4874;43.568;27.824;2023-04-21T05:12:59;98508.88;;;9.41;100.00
9672;BME280;4874;43.568;27.824;2023-04-21T05:15:25;98504.78;;;9.29;100.00
9672;BME280;4874;43.568;27.824;2023-04-21T05:17:52;98511.22;;;9.26;100.00
9672;BME280;4874;43.568;27.824;2023-04-21T05:20:19;98512.97;;;9.35;100.00
9672;BME280;4874;43.568;27.824;2023-04-21T05:22:46;98520.78;;;9.37;100.00
9672;BME280;4874;43.568;27.824;2023-04-21T05:25:12;98520.69;;;9.29;100.00
9672;BME280;4874;43.568;27.824;2023-04-21T05:27:42;98525.97;;;9.56;100.00
9672;BME280;4874;43.568;27.824;2023-04-21T05:30:09;98519.09;;;9.36;100.00
9672;BME280;4874;43.568;27.824;2023-04-21T05:32:35;98518.75;;;9.48;100.00
9672;BME280;4874;43.568;27.824;2023-04-21T05:35:02;98520.31;;;9.41;100.00
9672;BME280;4874;43.568;27.824;2023-04-21T05:37:29;98518.97;;;9.37;100.00
9672;BME280;4874;43.568;27.824;2023-04-21T05:39:55;98520.31;;;9.41;100.00
9672;BME280;4874;43.568;27.824;2023-04-21T05:42:22;98523.56;;;9.35;100.00
9672;BME280;4874;43.568;27.824;2023-04-21T05:44:48;98516.91;;;9.31;100.00
9672;BME280;4874;43.568;27.824;2023-04-21T05:47:15;98513.94;;;9.34;100.00
9672;BME280;4874;43.568;27.824;2023-04-21T05:49:42;98519.34;;;9.15;100.00
9672;BME280;4874;43.568;27.824;2023-04-21T05:52:15;98517.59;;;8.97;100.00
9672;BME280;4874;43.568;27.824;2023-04-21T05:54:43;98521.50;;;9.29;100.00
9672;BME280;4874;43.568;27.824;2023-04-21T05:57:09;98538.16;;;9.22;100.00
9672;BME280;4874;43.568;27.824;2023-04-21T05:59:36;98527.28;;;9.15;100.00
9672;BME280;4874;43.568;27.824;2023-04-21T06:02:03;98525.22;;;9.09;100.00
9672;BME280;4874;43.568;27.824;2023-04-21T06:04:29;98525.03;;;9.20;100.00
9672;BME280;4874;43.568;27.824;2023-04-21T06:06:56;98524.53;;;9.34;100.00
9672;BME280;4874;43.568;27.824;2023-04-21T06:09:23;98527.78;;;9.28;100.00
9672;BME280;4874;43.568;27.824;2023-04-21T06:11:49;98530.28;;;9.30;100.00
9672;BME280;4874;43.568;27.824;2023-04-21T06:14:16;98434.66;;;8.79;100.00
9672;BME280;4874;43.568;27.824;2023-04-21T06:16:43;98529.28;;;9.31;100.00
9672;BME280;4874;43.568;27.824;2023-04-21T06:19:09;98533.16;;;9.46;100.00
9672;BME280;4874;43.568;27.824;2023-04-21T06:21:36;98528.22;;;9.24;100.00
9672;BME280;4874;43.568;27.824;2023-04-21T06:24:03;98529.34;;;9.21;100.00
9672;BME280;4874;43.568;27.824;2023-04-21T06:26:29;98531.63;;;9.43;100.00
9672;BME280;4874;43.568;27.824;2023-04-21T06:28:56;98524.59;;;9.25;100.00
9672;BME280;4874;43.568;27.824;2023-04-21T06:31:22;98528.47;;;9.58;100.00
9672;BME280;4874;43.568;27.824;2023-04-21T06:33:49;98526.25;;;9.53;100.00
9672;BME280;4874;43.568;27.824;2023-04-21T06:36:16;98528.84;;;9.63;100.00
9672;BME280;4874;43.568;27.824;2023-04-21T06:38:43;98537.09;;;9.60;100.00
9672;BME280;4874;43.568;27.824;2023-04-21T06:41:09;98531.13;;;9.58;100.00
9672;BME280;4874;43.568;27.824;2023-04-21T06:43:36;98542.97;;;9.53;100.00
9672;BME280;4874;43.568;27.824;2023-04-21T06:46:03;98537.53;;;9.55;100.00
9672;BME280;4874;43.568;27.824;2023-04-21T06:48:29;98539.19;;;9.83;100.00
9672;BME280;4874;43.568;27.824;2023-04-21T06:50:56;98539.03;;;9.85;100.00
9672;BME280;4874;43.568;27.824;2023-04-21T06:53:23;98537.41;;;9.74;100.00
9672;BME280;4874;43.568;27.824;2023-04-21T06:55:49;98542.09;;;9.63;100.00
9672;BME280;4874;43.568;27.824;2023-04-21T06:58:16;98568.25;;;9.75;100.00
9672;BME280;4874;43.568;27.824;2023-04-21T07:00:45;98539.63;;;9.96;100.00
9672;BME280;4874;43.568;27.824;2023-04-21T07:03:11;98530.34;;;10.10;100.00
9672;BME280;4874;43.568;27.824;2023-04-21T07:05:38;98532.72;;;10.13;100.00
9672;BME280;4874;43.568;27.824;2023-04-21T07:08:04;98527.59;;;10.02;100.00
9672;BME280;4874;43.568;27.824;2023-04-21T07:10:31;98520.63;;;10.01;100.00
9672;BME280;4874;43.568;27.824;2023-04-21T07:12:58;98524.44;;;10.16;100.00
9672;BME280;4874;43.568;27.824;2023-04-21T07:15:24;98517.25;;;10.26;100.00
9672;BME280;4874;43.568;27.824;2023-04-21T07:17:51;98523.44;;;10.34;100.00
9672;BME280;4874;43.568;27.824;2023-04-21T07:20:17;98524.38;;;10.51;100.00
9672;BME280;4874;43.568;27.824;2023-04-21T07:22:44;98528.09;;;10.58;100.00
9672;BME280;4874;43.568;27.824;2023-04-21T07:25:11;98521.91;;;10.49;100.00
9672;BME280;4874;43.568;27.824;2023-04-21T07:27:38;98522.88;;;10.66;100.00
9672;BME280;4874;43.568;27.824;2023-04-21T07:30:04;98521.09;;;11.00;100.00
9672;BME280;4874;43.568;27.824;2023-04-21T07:32:31;98524.72;;;11.33;100.00
9672;BME280;4874;43.568;27.824;2023-04-21T07:34:59;98523.13;;;11.48;100.00
9672;BME280;4874;43.568;27.824;2023-04-21T07:37:27;98516.34;;;11.53;100.00
9672;BME280;4874;43.568;27.824;2023-04-21T07:39:54;98513.25;;;11.32;100.00
9672;BME280;4874;43.568;27.824;2023-04-21T07:42:20;98512.81;;;11.45;100.00
9672;BME280;4874;43.568;27.824;2023-04-21T07:44:48;98509.19;;;11.54;100.00
9672;BME280;4874;43.568;27.824;2023-04-21T07:47:14;98500.78;;;11.74;100.00
9672;BME280;4874;43.568;27.824;2023-04-21T07:49:41;98491.38;;;12.04;100.00
9672;BME280;4874;43.568;27.824;2023-04-21T07:52:07;98488.75;;;11.54;100.00
9672;BME280;4874;43.568;27.824;2023-04-21T07:54:34;98492.00;;;11.90;100.00
9672;BME280;4874;43.568;27.824;2023-04-21T07:57:00;98486.22;;;12.11;100.00
9672;BME280;4874;43.568;27.824;2023-04-21T07:59:27;98495.53;;;12.39;100.00
9672;BME280;4874;43.568;27.824;2023-04-21T08:01:54;98494.03;;;11.96;100.00
9672;BME280;4874;43.568;27.824;2023-04-21T08:04:21;98492.19;;;11.97;100.00
9672;BME280;4874;43.568;27.824;2023-04-21T08:06:48;98489.50;;;11.80;100.00
9672;BME280;4874;43.568;27.824;2023-04-21T08:09:15;98479.75;;;12.13;100.00
9672;BME280;4874;43.568;27.824;2023-04-21T08:11:42;98478.91;;;12.05;100.00
9672;BME280;4874;43.568;27.824;2023-04-21T08:14:08;98488.88;;;12.43;100.00
9672;BME280;4874;43.568;27.824;2023-04-21T08:16:37;98494.72;;;12.30;100.00
9672;BME280;4874;43.568;27.824;2023-04-21T08:19:04;98497.38;;;12.30;100.00
9672;BME280;4874;43.568;27.824;2023-04-21T08:21:32;98492.53;;;12.50;100.00
9672;BME280;4874;43.568;27.824;2023-04-21T08:23:59;98495.50;;;12.71;100.00
9672;BME280;4874;43.568;27.824;2023-04-21T08:26:25;98497.59;;;13.16;100.00
9672;BME280;4874;43.568;27.824;2023-04-21T08:28:52;98496.59;;;13.00;100.00
9672;BME280;4874;43.568;27.824;2023-04-21T08:31:18;98488.97;;;12.89;100.00
9672;BME280;4874;43.568;27.824;2023-04-21T08:33:46;98493.09;;;13.00;100.00
9672;BME280;4874;43.568;27.824;2023-04-21T08:36:26;98488.44;;;13.10;100.00
9672;BME280;4874;43.568;27.824;2023-04-21T08:38:55;98493.81;;;13.02;100.00
9672;BME280;4874;43.568;27.824;2023-04-21T08:41:21;98489.66;;;12.75;100.00
9672;BME280;4874;43.568;27.824;2023-04-21T08:43:49;98475.16;;;12.94;100.00
9672;BME280;4874;43.568;27.824;2023-04-21T08:46:16;98497.13;;;13.04;100.00
9672;BME280;4874;43.568;27.824;2023-04-21T08:48:45;98488.88;;;13.22;100.00
9672;BME280;4874;43.568;27.824;2023-04-21T08:51:12;98495.31;;;13.43;100.00
9672;BME280;4874;43.568;27.824;2023-04-21T08:53:40;98486.22;;;13.30;100.00
9672;BME280;4874;43.568;27.824;2023-04-21T08:56:06;98492.25;;;12.99;100.00
9672;BME280;4874;43.568;27.824;2023-04-21T08:58:36;98487.78;;;13.47;100.00
9672;BME280;4874;43.568;27.824;2023-04-21T09:01:03;98490.97;;;13.42;100.00
9672;BME280;4874;43.568;27.824;2023-04-21T09:03:30;98486.75;;;13.01;100.00
9672;BME280;4874;43.568;27.824;2023-04-21T09:08:24;98491.94;;;12.94;100.00
9672;BME280;4874;43.568;27.824;2023-04-21T09:10:52;98486.97;;;12.91;100.00
9672;BME280;4874;43.568;27.824;2023-04-21T09:13:20;98481.97;;;12.80;100.00
9672;BME280;4874;43.568;27.824;2023-04-21T09:15:49;98490.16;;;12.79;100.00
9672;BME280;4874;43.568;27.824;2023-04-21T09:18:18;98489.50;;;12.69;100.00
9672;BME280;4874;43.568;27.824;2023-04-21T09:20:46;98485.88;;;12.70;100.00
9672;BME280;4874;43.568;27.824;2023-04-21T09:23:12;98492.81;;;12.79;100.00
9672;BME280;4874;43.568;27.824;2023-04-21T09:25:40;98489.81;;;12.74;100.00
9672;BME280;4874;43.568;27.824;2023-04-21T09:28:13;98485.69;;;12.39;100.00
9672;BME280;4874;43.568;27.824;2023-04-21T09:30:40;98491.34;;;12.60;100.00
9672;BME280;4874;43.568;27.824;2023-04-21T09:33:07;98486.19;;;12.67;100.00
9672;BME280;4874;43.568;27.824;2023-04-21T09:35:52;98482.97;;;12.95;100.00
9672;BME280;4874;43.568;27.824;2023-04-21T09:38:20;98482.13;;;12.95;100.00
9672;BME280;4874;43.568;27.824;2023-04-21T09:40:57;98471.78;;;13.08;100.00
9672;BME280;4874;43.568;27.824;2023-04-21T09:43:24;98481.78;;;13.06;100.00
9672;BME280;4874;43.568;27.824;2023-04-21T09:45:51;98476.50;;;12.82;100.00
9672;BME280;4874;43.568;27.824;2023-04-21T09:48:18;98474.97;;;12.95;100.00
9672;BME280;4874;43.568;27.824;2023-04-21T09:50:47;98467.81;;;12.88;100.00
9672;BME280;4874;43.568;27.824;2023-04-21T09:53:17;98473.56;;;12.61;100.00
9672;BME280;4874;43.568;27.824;2023-04-21T09:55:47;98472.88;;;12.75;100.00
9672;BME280;4874;43.568;27.824;2023-04-21T09:58:15;98479.03;;;12.67;100.00
9672;BME280;4874;43.568;27.824;2023-04-21T10:00:45;98473.69;;;12.67;100.00
9672;BME280;4874;43.568;27.824;2023-04-21T10:03:12;98476.56;;;12.58;100.00
9672;BME280;4874;43.568;27.824;2023-04-21T10:05:39;98475.84;;;12.72;100.00
9672;BME280;4874;43.568;27.824;2023-04-21T10:08:08;98478.81;;;12.77;100.00
9672;BME280;4874;43.568;27.824;2023-04-21T10:10:37;98469.50;;;12.81;100.00
9672;BME280;4874;43.568;27.824;2023-04-21T10:13:04;98481.03;;;12.57;100.00
9672;BME280;4874;43.568;27.824;2023-04-21T10:18:10;98481.88;;;12.50;100.00
9672;BME280;4874;43.568;27.824;2023-04-21T10:23:25;98471.19;;;12.82;100.00
9672;BME280;4874;43.568;27.824;2023-04-21T10:25:52;98474.03;;;12.64;100.00
9672;BME280;4874;43.568;27.824;2023-04-21T10:28:19;98469.53;;;12.73;100.00
9672;BME280;4874;43.568;27.824;2023-04-21T10:30:46;98474.69;;;12.74;100.00
9672;BME280;4874;43.568;27.824;2023-04-21T10:33:13;98477.31;;;12.90;100.00
9672;BME280;4874;43.568;27.824;2023-04-21T10:36:01;98477.97;;;12.92;100.00
9672;BME280;4874;43.568;27.824;2023-04-21T10:38:32;98478.03;;;12.76;100.00
9672;BME280;4874;43.568;27.824;2023-04-21T10:43:45;98475.81;;;12.88;100.00
9672;BME280;4874;43.568;27.824;2023-04-21T10:46:33;98477.81;;;13.02;100.00
9672;BME280;4874;43.568;27.824;2023-04-21T10:49:43;98481.06;;;13.20;100.00
9672;BME280;4874;43.568;27.824;2023-04-21T10:54:23;98477.25;;;13.53;100.00
9672;BME280;4874;43.568;27.824;2023-04-21T10:56:53;98471.06;;;13.22;100.00
9672;BME280;4874;43.568;27.824;2023-04-21T10:59:19;98474.13;;;13.03;100.00
9672;BME280;4874;43.568;27.824;2023-04-21T11:01:46;98481.00;;;12.81;100.00
9672;BME280;4874;43.568;27.824;2023-04-21T11:04:14;98477.88;;;12.70;100.00
9672;BME280;4874;43.568;27.824;2023-04-21T11:06:42;98483.19;;;12.62;100.00
9672;BME280;4874;43.568;27.824;2023-04-21T11:09:08;98479.22;;;12.50;100.00
9672;BME280;4874;43.568;27.824;2023-04-21T11:11:35;98485.41;;;12.18;100.00
9672;BME280;4874;43.568;27.824;2023-04-21T11:14:02;98490.88;;;12.25;100.00
9672;BME280;4874;43.568;27.824;2023-04-21T11:16:28;98502.19;;;12.11;100.00
9672;BME280;4874;43.568;27.824;2023-04-21T11:18:56;98502.50;;;12.08;100.00
9672;BME280;4874;43.568;27.824;2023-04-21T11:21:22;98498.19;;;12.31;100.00
9672;BME280;4874;43.568;27.824;2023-04-21T11:23:54;98490.72;;;12.18;100.00
9672;BME280;4874;43.568;27.824;2023-04-21T11:29:06;98498.84;;;12.33;100.00
9672;BME280;4874;43.568;27.824;2023-04-21T11:31:34;98507.19;;;12.46;100.00
9672;BME280;4874;43.568;27.824;2023-04-21T11:34:01;98496.34;;;12.55;100.00
9672;BME280;4874;43.568;27.824;2023-04-21T11:36:37;98494.03;;;12.28;100.00
9672;BME280;4874;43.568;27.824;2023-04-21T11:39:05;98495.88;;;12.36;100.00
9672;BME280;4874;43.568;27.824;2023-04-21T11:41:33;98499.38;;;12.44;100.00
9672;BME280;4874;43.568;27.824;2023-04-21T11:44:01;98510.16;;;12.67;100.00
9672;BME280;4874;43.568;27.824;2023-04-21T11:46:28;98497.81;;;12.74;100.00
9672;BME280;4874;43.568;27.824;2023-04-21T11:49:09;98498.69;;;12.50;100.00
9672;BME280;4874;43.568;27.824;2023-04-21T11:51:37;98498.50;;;12.60;100.00
9672;BME280;4874;43.568;27.824;2023-04-21T11:54:05;98494.16;;;12.75;100.00
9672;BME280;4874;43.568;27.824;2023-04-21T11:56:33;98507.16;;;12.62;100.00
9672;BME280;4874;43.568;27.824;2023-04-21T11:59:04;98511.84;;;12.44;100.00
9672;BME280;4874;43.568;27.824;2023-04-21T12:01:31;98513.66;;;12.43;100.00
9672;BME280;4874;43.568;27.824;2023-04-21T12:03:58;98509.34;;;12.42;100.00
9672;BME280;4874;43.568;27.824;2023-04-21T12:06:25;98517.00;;;12.61;100.00
9672;BME280;4874;43.568;27.824;2023-04-21T12:08:54;98505.16;;;12.80;100.00
9672;BME280;4874;43.568;27.824;2023-04-21T12:11:22;98520.47;;;12.78;100.00
9672;BME280;4874;43.568;27.824;2023-04-21T12:13:49;98509.63;;;12.95;100.00
9672;BME280;4874;43.568;27.824;2023-04-21T12:16:16;98504.38;;;13.18;100.00
9672;BME280;4874;43.568;27.824;2023-04-21T12:18:43;98512.25;;;13.20;100.00
9672;BME280;4874;43.568;27.824;2023-04-21T12:21:13;98518.59;;;12.94;100.00
9672;BME280;4874;43.568;27.824;2023-04-21T12:23:39;98517.44;;;12.97;100.00
9672;BME280;4874;43.568;27.824;2023-04-21T12:26:06;98522.25;;;13.10;100.00
9672;BME280;4874;43.568;27.824;2023-04-21T12:28:32;98519.44;;;13.11;100.00
9672;BME280;4874;43.568;27.824;2023-04-21T12:30:59;98509.41;;;13.21;100.00
9672;BME280;4874;43.568;27.824;2023-04-21T12:33:25;98523.50;;;13.38;100.00
9672;BME280;4874;43.568;27.824;2023-04-21T12:35:52;98519.22;;;13.21;100.00
9672;BME280;4874;43.568;27.824;2023-04-21T12:38:19;98526.59;;;13.49;100.00
9672;BME280;4874;43.568;27.824;2023-04-21T12:40:45;98510.28;;;13.52;100.00
9672;BME280;4874;43.568;27.824;2023-04-21T12:43:12;98515.13;;;13.41;100.00
9672;BME280;4874;43.568;27.824;2023-04-21T12:45:38;98502.28;;;13.52;100.00
9672;BME280;4874;43.568;27.824;2023-04-21T12:48:05;98508.28;;;13.46;100.00
9672;BME280;4874;43.568;27.824;2023-04-21T12:50:32;98511.00;;;13.69;100.00
9672;BME280;4874;43.568;27.824;2023-04-21T12:52:58;98499.25;;;14.08;100.00
9672;BME280;4874;43.568;27.824;2023-04-21T12:55:25;98509.81;;;14.25;100.00
9672;BME280;4874;43.568;27.824;2023-04-21T12:57:51;98504.78;;;14.07;100.00
9672;BME280;4874;43.568;27.824;2023-04-21T13:00:18;98506.53;;;13.69;100.00
9672;BME280;4874;43.568;27.824;2023-04-21T13:02:44;98516.41;;;13.91;100.00
9672;BME280;4874;43.568;27.824;2023-04-21T13:05:12;98527.94;;;13.53;100.00
9672;BME280;4874;43.568;27.824;2023-04-21T13:07:39;98522.28;;;13.48;100.00
9672;BME280;4874;43.568;27.824;2023-04-21T13:10:06;98511.94;;;13.84;100.00
9672;BME280;4874;43.568;27.824;2023-04-21T13:12:33;98513.41;;;13.56;100.00
9672;BME280;4874;43.568;27.824;2023-04-21T13:15:00;98509.31;;;13.76;100.00
9672;BME280;4874;43.568;27.824;2023-04-21T13:17:27;98510.63;;;14.02;100.00
9672;BME280;4874;43.568;27.824;2023-04-21T13:19:54;98505.59;;;14.07;100.00